Khorramabad Airport

Airport
ICAO code: 
OICK
IATA Code: 
KHD
Summary
ICAO Region: 
MID
Territory: 
Location: 
Khorramabad, Lorstan Province
Serving: 
Khorramabad
Elevation: 
3782 ft
Coordinates: 
Aerial View: 
33° 26' 17.506" N, 48° 17' 8.921" E
Metar
Observation
OICK 030800Z 27008KT CAVOK 36/01 Q1002
Station
Khorram Abad
Date/Time
2022-07-03 08:00:00
Wind direction
270°
Wind speed
08 kts
Lowest cloud amount
clouds and visibility OK
Temperature
36°C
Dew point
1°C
Humidity
11%
QNH
1002 hPa
Weather condition
n/a

Airport serving the city of Khorramabad, Iran.

Climatology

Semi-arid climate (Köppen climate classification BSh).

Runways

Designator Length Width Surface Rops
11/29 3200 45 ASP No/No
Airport map: 
Aerial View: 

SKYbrary Partners:

Safety knowledge contributed by: